Historyczne dane pomiarowe

Dodano dane terminowe – wersja testowa.

Dane z okresu 1951-2019

Wersja bazy: 1.34 [2019-03-16, lista zmian], aktualizacja planowana na 2019-04-15

Dane meteo z obszaru Polski uzyskane na podstawie danych udostępnionych przez Instytut Meteorologii i Gospodarki Wodnej – Państwowy Instytut Badawczy.

 

Wybierz Datę:    

       

TemperaturaWilgotnośćWiatrCiśnienieOpadyŚniegCzas trwania zjawisk
 Stacja t tx tn tng RH VA  wxwx mslp ppp RRR   cm mm wxwxwxwxwxwxwx
1994-08-14 16.1 20.2 12.8 11.4 71.3- 4.3 3.7---- 0.0------------
1994-08-13 17.7 22.9 15.4 14.8 82.3- 7.3 4.0---- 4.3------------
1994-08-12 17.5 20.2 15.1 13.9 87.8- 6.3 5.7---- 0.2------------
1994-08-11 19.0 23.7 15.9 15.9 92.5- 8.0 2.0---- 27.4------------
1994-08-10 19.2 26.2 15.8 15.8 83.0- 4.7 1.0---- 0.0------------
1994-08-09 19.8 25.7 16.1 15.7 90.3- 7.3 3.3---- 11.8------------
1994-08-08 21.2 28.9 17.2 17.4 88.0- 5.7 2.3---- 1.1------------
1994-08-07 24.6 29.5 17.7 17.0 80.5- 4.7 1.3---- 7.7------------
1994-08-06 24.2 31.7 13.3 12.6 73.0- 1.0 1.0---- 0.0------------
1994-08-05 22.2 29.7 16.1 15.4 76.5- 2.3 2.0---- 0.0------------
1994-08-04 19.9 28.2 18.2 17.4 96.5- 6.0 2.7---- 11.6------------
1994-08-03 25.1 31.2 20.2 19.9 72.8- 6.3 3.7---- 30.0------------
1994-08-02 26.5 34.3 16.7 16.4 61.3- 4.0 1.7---- 0.0------------
1994-08-01 25.1 35.2 16.9 14.9 66.8- 2.3 2.0---- 0.0------------
1994-07-31 25.8 34.7 16.9 16.3 71.3- 0.7 2.3---- 0.0------------
1994-07-30 24.7 34.4 15.4 15.3 66.5- 2.3 2.7---- 0.0------------
1994-07-29 23.8 34.2 14.9 14.9 65.8- 0.7 3.3---- 0.0------------
1994-07-28 23.7 33.2 15.7 15.1 70.0- 2.0 1.7---- 0.0------------
1994-07-27 23.2 33.4 14.3 13.8 67.3- 4.3 1.0---- 0.0------------
1994-07-26 24.0 32.6 14.2 14.0 59.8- 1.3 2.0---- 0.0------------
1994-07-25 22.6 31.7 13.0 12.4 59.0- 1.3 2.7---- 0.0------------
1994-07-24 20.0 30.2 14.2 13.0 70.8- 2.0 2.0---- 0.0------------
1994-07-23 20.2 28.5 12.3 10.7 74.8- 2.3 2.3---- 0.0------------
1994-07-22 19.3 28.0 11.0 8.8 68.8- 0.0 3.0---- 0.0------------
1994-07-21 19.3 26.1 9.3 8.9 66.0- 0.7 1.0---- 0.0------------
1994-07-20 18.4 24.2 11.5 11.3 71.3- 2.0 2.0---- 0.0------------
1994-07-19 19.7 25.3 14.3 13.9 81.8- 6.0 2.3---- 0.0------------
1994-07-18 19.8 26.5 17.1 16.9 89.3- 6.3 0.3---- 0.8------------
1994-07-17 23.4 29.2 18.0 17.9 77.3- 5.0 1.3---- 12.7------------
1994-07-16 22.7 30.9 13.7 12.9 74.5- 3.7 1.0---- 0.0------------
1994-07-15 22.1 28.3 13.3 12.8 72.5- 4.0 5.3---- 0.0------------
1994-07-14 21.6 29.2 13.6 10.9 76.5- 4.7 3.7---- 0.0------------
1994-07-13 20.4 28.6 10.5 8.8 74.3- 3.7 3.3---- 0.0------------
1994-07-12 20.0 27.3 12.6 11.8 74.3- 5.7 2.7---- 0.0------------
1994-07-11 17.0 24.2 12.1 9.9 85.0- 6.0 2.3---- 0.0------------
1994-07-10 15.5 19.8 12.6 10.1 86.3- 5.3 1.7---- 0.1------------
1994-07-09 15.8 19.0 13.2 8.4 77.5- 7.7 4.0---- 4.5------------
1994-07-08 18.3 22.5 15.3 13.4 73.5- 4.3 3.0---- 0.0------------
1994-07-07 19.1 27.2 11.2 7.5 75.0- 5.3 2.7---- 3.3------------
1994-07-06 18.2 25.2 12.4 7.9 71.8- 4.7 2.0---- 0.0------------
1994-07-05 19.7 27.3 11.0 11.0 72.3- 6.3 1.0---- 0.0------------
1994-07-04 18.7 27.5 10.1 9.0 73.3- 1.3 1.0---- 0.0------------
1994-07-03 18.3 26.1 9.0 4.9 70.0- 1.3 1.0---- 0.0------------
1994-07-02 17.3 24.0 9.8 6.5 67.5- 1.0 3.0---- 0.0------------
1994-07-01 18.6 23.7 15.5 12.4 72.8- 3.3 2.3---- 0.0------------
1994-06-30 22.8 28.2 17.6 15.4 81.5- 5.3 3.3---- 0.5------------
1994-06-29 23.1 30.9 14.7 13.9 72.0- 0.3 2.0---- 0.0------------
1994-06-28 24.8 29.9 17.3 16.9 79.8- 2.7 1.7---- 0.0------------
1994-06-27 24.8 31.7 19.8 15.9 68.0- 5.7 2.0---- 0.0------------
1994-06-26 20.1 27.8 10.1 5.9 61.8- 1.0 4.3---- 0.0------------
1994-06-25 15.1 21.2 5.4 5.4 67.0- 0.0 0.3---- 0.0------------
1994-06-24 15.9 20.2 9.3 7.9 53.5- 0.7 4.3---- 0.0------------
1994-06-23 18.3 25.3 17.2 13.1 63.3- 5.0 6.0---- 0.0------------
1994-06-22 19.5 27.2 8.6 6.4 68.8- 5.7 4.0---- 0.3------------
1994-06-21 15.4 21.2 7.1 4.7 73.8- 3.0 2.0---- 0.0------------
1994-06-20 18.1 25.1 14.1 9.9 67.3- 4.0 4.3---- 0.0------------
1994-06-19 18.1 24.2 10.1 9.9 71.8- 6.7 3.0---- 0.0------------
1994-06-18 12.4 18.2 5.6 4.4 71.5- 6.0 2.7---- 6.5------------
1994-06-17 12.2 15.2 9.7 8.8 77.5- 4.7 2.0---- 0.2------------
1994-06-16 13.0 17.9 7.3 6.4 74.8- 7.3 3.7---- 2.3------------
262.4 ms

 

Źródłem pochodzenia danych jest Instytut Meteorologii i Gospodarki Wodnej – Państwowy Instytut Badawczy. Dane Instytutu Meteorologii i Gospodarki Wodnej – Państwowego Instytutu Badawczego zostały przetworzone.

Dane źródłowe można odnaleźć na stronie https://dane.imgw.pl